Aktuální počasí v Česku a ve světě - METAR

Seznam meteostanic umístěných nejčasteji na letišti v ČR a ve světě

Vyhledat místa podle abecedy:
A B C D E F G H I J K L M N O P Q R S T U V W X Y Z

Filtrovat:

ID stanice:
a/nebo
Název místa (fulltext):
 
Místo (ID)Naposledy načteno 
Vagar (EKVG) 19.06.2021 14:50 UTC Zobrazit METAR
EKVG 191450Z AUTO 19009KT 4300 DZ BR OVC004/// 08/08 Q1016
Valencia (LEVC) 19.06.2021 15:00 UTC Zobrazit METAR
LEVC 191500Z VRB02KT 9999 -RA FEW025 SCT045 24/20 Q1014 NOSIG
Varna (LBWN) 19.06.2021 15:00 UTC Zobrazit METAR
LBWN 191500Z 11012KT 9999 SCT009 BKN043 19/18 Q1011 NOSIG
Verona (LIPX) 19.06.2021 14:50 UTC Zobrazit METAR
LIPX 191450Z 25010KT CAVOK 32/13 Q1014
Vienna (LOWW) 19.06.2021 14:50 UTC Zobrazit METAR
LOWW 191450Z 07006KT 010V130 CAVOK 32/14 Q1013 NOSIG
Vientiane (VLVT) 19.06.2021 12:00 UTC Zobrazit METAR
VLVT 191200Z 24002KT 8000 FEW016 SCT200 32/23 Q1005 NOSIG
Vieuxfort (TLPL) 19.06.2021 14:00 UTC Zobrazit METAR
TLPL 191400Z 10018KT 9999 FEW019 29/23 Q1017 NOSIG
Vilnius (EYVI) 19.06.2021 14:50 UTC Zobrazit METAR
EYVI 191450Z 15007KT CAVOK 29/11 Q1019 NOSIG
Vitebsk (UMII) Zatím nenačteno  
Volgograd (URWW) Zatím nenačteno  
Voronezh (UUOO) Zatím nenačteno  
Reklama

Reklama


Newslettter

Počasí na Váš email

Emaily jsou bez reklamy a bez spamu



Odhlásit newsletter



Kontaktujte nás

Kontaktujte Slunečno.cz

Kontaktujte provozovatele Slunecno.cz

Další české internetové stránky (nejen) o počasí najdete v katalogu TOPlist - weby o počasí nebo vyhledejte na internetu, co jste tu na Počasí Slunečno Slunečnu zatím nenašli:
Přidat mezzi oblíbené stránkyPřidat Slunečno.cz do oblíbených | Nastavit jako HOMEPAGENastavit Slunečno.cz jako HOMEPAGE

Posunout stránku nahoru Posunout stránku nahoru Posunout stránku nahoru
Reklama